sim
Sign-in with your pilot id or email,
or register
Callsign
Passwort

Schedule Details

Flight Number: OEC0270
Departure: Rio de Janeiro Galeao International Airport (SBGL) at Time
Arrival: Los Angeles International Airport (KLAX) at Time
Route: ENSOD UM409 ALGOX UZ8 RORIT UM417 MOTVI UM549 TBG UM419 ASOKU UL655 PPE J93 ASUTA J93 AMMOR

Weather Information
Getting current METAR information for SBGL 222300Z 05009KT CAVOK 22/17 Q1021
Getting current METAR information for KLAX 222253Z 26012KT 10SM FEW040 FEW095 SCT150 SCT200 23/17 A2995 RMK AO2 SLP141 CB DSNT E T02330167 $

Schedule Frequency

Route Map